aviador You're here:

DIAP Decoded Metar

ABIDJAN in IVORY COAST
Report Time2018-07-16 10:00:00
UTC Time2018-07-16 10:23:37
Flight Rules mvfr MVFR
Wind240° at 03 kt
W.Decomp.*RWY 21: 2.5 kt HW 1.7 kt RCW
W.Rank240° ranks 1
Current wind is below 240° avg. (6.8)
Visibility6000 m
Phenomena:Recent Rain
Clouds:Broken 012 Hf
Broken 030 Hf
Expected CloudBase > 400 ft AGL from Temp-Dew spread
Ceiling1,200 ft
Temp25°C (ISA +10)
Dew Point24°C (94% RH)
QNH1016 hPa
Density Alt1,480 ft
Elevation26 ft
Report Wrong Elevation
Raw Report
METAR DIAP 161000Z 24003KT 200V280 6000 BKN012 BKN030 25/24 Q1016
RERA TEMPO 4000 RA=

Extra information for DIAP:More info

Metar Taf Metar & Taf Last 4 Metars F.Rules Stats Wind Profile Meteogram Temp Stats Airport Information Weather charts Add Link Nearby VenuesMetar ALERT Operation Metar Decoded Social comments